createdAt,value
2022-10-29T00:00:36.073Z,11.08
2022-10-29T00:03:20.672Z,10.90
2022-10-29T00:06:06.783Z,11.05
2022-10-29T00:08:50.573Z,11.10
2022-10-29T00:11:35.657Z,11.04
2022-10-29T00:14:19.462Z,11.04
2022-10-29T00:17:04.634Z,10.95
2022-10-29T00:19:49.038Z,10.83
2022-10-29T00:22:32.733Z,11.00
2022-10-29T00:25:16.579Z,11.15
2022-10-29T00:28:00.279Z,10.05
2022-10-29T00:30:44.026Z,10.85
2022-10-29T00:33:29.095Z,10.87
2022-10-29T00:36:14.693Z,10.94
2022-10-29T00:38:58.467Z,10.99
2022-10-29T00:41:42.166Z,10.92
2022-10-29T00:44:31.986Z,10.88
2022-10-29T00:47:22.757Z,11.10
2022-10-29T00:50:10.485Z,11.03
2022-10-29T00:52:55.292Z,11.07
2022-10-29T00:55:39.155Z,10.95
2022-10-29T00:58:23.253Z,11.10
2022-10-29T01:01:07.185Z,10.71
2022-10-29T01:03:52.833Z,10.77
2022-10-29T01:06:38.749Z,10.57
2022-10-29T01:09:22.478Z,10.31
2022-10-29T01:12:22.536Z,10.83
2022-10-29T01:15:14.414Z,10.85
2022-10-29T01:18:08.792Z,10.60
2022-10-29T01:21:33.945Z,10.68
2022-10-29T01:24:50.372Z,10.76
2022-10-29T01:28:07.287Z,10.78
2022-10-29T01:31:16.410Z,10.81
2022-10-29T01:34:07.809Z,10.74
2022-10-29T01:36:57.282Z,10.70
2022-10-29T01:39:46.967Z,10.70
2022-10-29T01:42:38.254Z,10.78
2022-10-29T01:45:27.106Z,10.57
2022-10-29T01:48:17.547Z,10.67
2022-10-29T01:51:06.394Z,10.94
2022-10-29T01:53:50.625Z,10.85
2022-10-29T01:56:34.364Z,10.88
2022-10-29T01:59:28.906Z,10.78
2022-10-29T02:02:27.450Z,10.73
2022-10-29T02:05:23.937Z,10.73
2022-10-29T02:08:19.091Z,10.77
2022-10-29T02:11:09.640Z,10.69
2022-10-29T02:13:58.343Z,10.71
2022-10-29T02:16:42.843Z,10.50
2022-10-29T02:19:31.134Z,10.64
2022-10-29T02:22:16.296Z,10.65
2022-10-29T02:25:00.074Z,10.72
2022-10-29T02:27:43.904Z,10.56
2022-10-29T02:30:27.720Z,10.57
2022-10-29T02:33:11.537Z,10.71
2022-10-29T02:35:55.378Z,10.67
2022-10-29T02:38:40.561Z,10.53
2022-10-29T02:41:24.277Z,10.60
2022-10-29T02:44:08.100Z,10.22
2022-10-29T02:46:51.886Z,10.24
2022-10-29T02:49:35.615Z,10.49
2022-10-29T02:52:19.538Z,10.24
2022-10-29T02:55:05.106Z,10.18
2022-10-29T02:57:49.221Z,10.24
2022-10-29T03:00:33.092Z,10.47
2022-10-29T03:03:16.988Z,10.07
2022-10-29T03:06:01.033Z,10.34
2022-10-29T03:08:45.714Z,10.43
2022-10-29T03:11:31.218Z,10.23
2022-10-29T03:14:15.064Z,10.33
2022-10-29T03:16:58.985Z,10.56
2022-10-29T03:19:43.019Z,10.40
2022-10-29T03:22:26.970Z,10.42
2022-10-29T03:25:11.783Z,10.37
2022-10-29T03:27:58.785Z,10.68
2022-10-29T03:30:43.410Z,10.31
2022-10-29T03:33:27.689Z,10.57
2022-10-29T03:36:11.830Z,9.88
2022-10-29T03:38:55.845Z,10.12
2022-10-29T03:41:39.850Z,10.34
2022-10-29T03:44:25.288Z,10.49
2022-10-29T03:47:09.558Z,10.62
2022-10-29T03:49:53.601Z,9.86
2022-10-29T03:52:37.711Z,10.22
2022-10-29T03:55:21.716Z,10.19
2022-10-29T03:58:05.656Z,10.50
2022-10-29T04:00:59.507Z,10.23
2022-10-29T04:03:44.148Z,9.96
2022-10-29T04:06:27.846Z,10.01
2022-10-29T04:09:11.650Z,10.14
2022-10-29T04:11:55.394Z,9.61
2022-10-29T04:14:44.486Z,9.63
2022-10-29T04:17:30.940Z,9.72
2022-10-29T04:20:31.788Z,10.01
2022-10-29T04:29:25.904Z,10.06
2022-10-29T04:32:09.638Z,10.12
2022-10-29T04:34:54.741Z,10.11
2022-10-29T04:37:38.399Z,10.01
2022-10-29T04:40:22.517Z,10.12
2022-10-29T04:43:07.645Z,9.96
2022-10-29T04:45:53.215Z,10.06
2022-10-29T04:48:37.095Z,9.96
2022-10-29T04:51:24.003Z,10.13
2022-10-29T04:54:07.704Z,10.06
2022-10-29T04:56:51.528Z,10.30
2022-10-29T04:59:35.298Z,10.28
2022-10-29T05:02:19.116Z,10.33
2022-10-29T05:05:02.921Z,9.95
2022-10-29T05:07:48.752Z,10.00
2022-10-29T05:10:33.938Z,9.69
2022-10-29T05:13:17.803Z,9.66
2022-10-29T05:16:01.804Z,9.90
2022-10-29T05:18:45.559Z,9.99
2022-10-29T05:21:29.376Z,10.13
2022-10-29T05:24:14.550Z,10.25
2022-10-29T05:26:58.286Z,10.39
2022-10-29T05:29:41.991Z,10.44
2022-10-29T05:32:25.796Z,10.36
2022-10-29T05:35:09.776Z,10.47
2022-10-29T05:37:53.717Z,10.28
2022-10-29T05:40:39.056Z,10.24
2022-10-29T05:43:22.792Z,10.62
2022-10-29T05:46:06.760Z,10.89
2022-10-29T05:48:50.495Z,11.19
2022-10-29T05:51:34.173Z,11.45
2022-10-29T05:54:17.923Z,11.56
2022-10-29T05:57:03.052Z,11.59
2022-10-29T05:59:46.760Z,11.80
2022-10-29T06:02:30.786Z,11.79
2022-10-29T06:05:14.808Z,11.62
2022-10-29T06:08:00.601Z,11.85
2022-10-29T06:10:44.967Z,11.82
2022-10-29T06:13:30.234Z,11.82
2022-10-29T06:16:13.998Z,11.78
2022-10-29T06:18:57.747Z,11.73
2022-10-29T06:21:41.793Z,11.64
2022-10-29T06:24:25.642Z,11.26
2022-10-29T06:27:09.370Z,11.54
2022-10-29T06:29:54.565Z,11.39
2022-10-29T06:32:38.307Z,11.42
2022-10-29T06:35:22.269Z,11.36
2022-10-29T06:38:10.879Z,11.53
2022-10-29T06:40:55.912Z,11.18
2022-10-29T06:43:40.163Z,11.77
2022-10-29T06:46:25.566Z,11.99
2022-10-29T06:49:09.504Z,11.85
2022-10-29T06:51:54.038Z,12.00
2022-10-29T06:54:38.049Z,11.99
2022-10-29T06:57:23.488Z,12.29
2022-10-29T07:00:09.064Z,12.12
2022-10-29T07:02:54.799Z,12.31
2022-10-29T07:05:38.995Z,12.09
2022-10-29T07:08:22.909Z,12.31
2022-10-29T07:11:07.487Z,12.78
2022-10-29T07:13:51.282Z,12.90
2022-10-29T07:16:35.305Z,13.00
2022-10-29T07:19:20.672Z,13.04
2022-10-29T07:22:04.558Z,12.61
2022-10-29T07:24:48.649Z,12.47
2022-10-29T07:27:32.672Z,13.00
2022-10-29T07:30:16.960Z,13.29
2022-10-29T07:33:01.097Z,13.22
2022-10-29T07:35:46.993Z,13.18
2022-10-29T07:38:30.954Z,13.31
2022-10-29T07:41:14.869Z,13.01
2022-10-29T07:43:58.984Z,13.43
2022-10-29T07:46:43.117Z,13.21
2022-10-29T07:49:27.024Z,13.37
2022-10-29T07:52:12.453Z,13.31
2022-10-29T07:54:56.395Z,13.40
2022-10-29T07:57:40.286Z,13.68
2022-10-29T08:00:24.234Z,13.47
2022-10-29T08:03:08.927Z,13.76
2022-10-29T08:05:55.469Z,13.97
2022-10-29T08:08:42.105Z,14.24
2022-10-29T08:11:26.095Z,14.16
2022-10-29T08:14:10.050Z,13.94
2022-10-29T08:16:55.019Z,14.23
2022-10-29T08:19:39.038Z,14.65
2022-10-29T08:22:22.931Z,14.43
2022-10-29T08:25:09.467Z,14.66
2022-10-29T08:28:00.692Z,14.69
2022-10-29T08:30:45.420Z,14.90
2022-10-29T08:33:29.383Z,14.93
2022-10-29T08:36:13.405Z,15.07
2022-10-29T08:38:57.457Z,15.13
2022-10-29T08:41:52.910Z,15.46
2022-10-29T08:45:07.201Z,15.47
2022-10-29T08:48:10.395Z,15.55
2022-10-29T08:51:01.345Z,15.65
2022-10-29T08:53:58.786Z,15.86
2022-10-29T08:56:56.227Z,16.12
2022-10-29T08:59:47.440Z,16.33
2022-10-29T09:02:31.347Z,16.37
2022-10-29T09:05:16.910Z,16.46
2022-10-29T09:08:12.207Z,16.67
2022-10-29T09:10:58.224Z,16.50
2022-10-29T09:13:56.695Z,16.78
2022-10-29T09:16:49.757Z,16.74
2022-10-29T09:19:46.053Z,16.74
2022-10-29T09:22:38.721Z,16.48
2022-10-29T09:25:27.396Z,16.81
2022-10-29T09:28:26.177Z,16.79
2022-10-29T09:31:23.629Z,16.61
2022-10-29T09:34:18.022Z,16.63
2022-10-29T09:37:01.940Z,16.53
2022-10-29T09:39:48.754Z,16.68
2022-10-29T09:42:38.120Z,16.78
2022-10-29T09:45:30.095Z,16.81
2022-10-29T09:48:21.469Z,16.83
2022-10-29T09:51:16.591Z,17.23
2022-10-29T09:54:00.549Z,17.27
2022-10-29T09:56:51.837Z,17.15
2022-10-29T09:59:43.251Z,17.17
2022-10-29T10:02:32.401Z,17.33
2022-10-29T10:05:24.316Z,17.40
2022-10-29T10:08:11.398Z,17.16
2022-10-29T10:10:57.083Z,17.29
2022-10-29T10:13:54.477Z,17.35
2022-10-29T10:16:38.734Z,17.45
2022-10-29T10:19:24.819Z,17.41
2022-10-29T10:22:20.318Z,17.85
2022-10-29T10:25:05.736Z,17.67
2022-10-29T10:27:49.500Z,17.26
2022-10-29T10:30:33.322Z,17.58
2022-10-29T10:33:27.553Z,17.52
2022-10-29T10:36:12.272Z,17.70
2022-10-29T10:39:00.927Z,17.83
2022-10-29T10:41:45.003Z,17.95
2022-10-29T10:44:29.675Z,17.86
2022-10-29T10:47:13.853Z,18.04
2022-10-29T10:50:12.044Z,17.98
2022-10-29T10:52:57.056Z,18.04
2022-10-29T10:55:49.529Z,17.76
2022-10-29T10:58:40.389Z,17.92
2022-10-29T11:01:29.602Z,18.23
2022-10-29T11:04:20.180Z,18.12
2022-10-29T11:07:07.685Z,18.30
2022-10-29T11:09:54.195Z,18.49
2022-10-29T11:12:44.130Z,18.66
2022-10-29T11:15:37.353Z,18.27
2022-10-29T11:18:26.188Z,18.46
2022-10-29T11:21:15.091Z,18.75
2022-10-29T11:24:06.292Z,18.80
2022-10-29T11:26:55.435Z,18.86
2022-10-29T11:29:49.168Z,18.62
2022-10-29T11:32:46.077Z,18.56
2022-10-29T11:35:40.543Z,18.51
2022-10-29T11:38:29.957Z,18.79
2022-10-29T11:41:23.379Z,18.80
2022-10-29T11:44:13.314Z,18.53
2022-10-29T11:47:11.268Z,18.82
2022-10-29T11:50:11.214Z,18.46
2022-10-29T11:53:04.952Z,18.34
2022-10-29T11:55:59.485Z,18.94
2022-10-29T11:58:48.383Z,18.79
2022-10-29T12:01:40.220Z,18.80
2022-10-29T12:04:31.331Z,19.03
2022-10-29T12:07:32.268Z,19.11
2022-10-29T12:10:45.124Z,19.04
2022-10-29T12:13:43.246Z,18.98
2022-10-29T12:16:37.941Z,18.79
2022-10-29T12:19:37.977Z,18.98
2022-10-29T12:22:33.189Z,19.05
2022-10-29T12:25:40.871Z,18.97
2022-10-29T12:28:39.643Z,18.85
2022-10-29T12:31:32.002Z,18.81
2022-10-29T12:34:25.121Z,18.93
2022-10-29T12:37:17.943Z,18.71
2022-10-29T12:40:04.662Z,18.90
2022-10-29T12:42:50.677Z,18.76
2022-10-29T12:46:06.520Z,18.73
2022-10-29T12:48:54.544Z,18.59
2022-10-29T12:51:45.719Z,18.56
2022-10-29T12:54:38.355Z,18.61
2022-10-29T12:57:31.649Z,18.47
2022-10-29T13:00:35.099Z,17.87
2022-10-29T13:03:58.149Z,17.99
2022-10-29T13:06:56.922Z,17.98
2022-10-29T13:09:47.301Z,18.26
2022-10-29T13:13:05.633Z,18.04
2022-10-29T13:15:59.737Z,17.52
2022-10-29T13:18:52.689Z,17.30
2022-10-29T13:21:55.908Z,17.54
2022-10-29T13:24:39.869Z,17.02
2022-10-29T13:27:37.394Z,17.07
2022-10-29T13:30:25.887Z,17.34
2022-10-29T13:33:39.255Z,17.53
2022-10-29T13:36:38.523Z,17.71
2022-10-29T13:39:22.432Z,17.36
2022-10-29T13:42:12.716Z,17.14
2022-10-29T13:44:58.216Z,17.07
2022-10-29T13:47:42.669Z,17.30
2022-10-29T13:50:27.188Z,16.79
2022-10-29T13:53:16.539Z,16.66
2022-10-29T13:56:00.905Z,16.90
2022-10-29T13:58:49.504Z,16.90
2022-10-29T14:01:35.462Z,16.62
2022-10-29T14:04:25.573Z,16.69
2022-10-29T14:07:15.657Z,16.68
2022-10-29T14:10:07.414Z,16.80
2022-10-29T14:12:55.933Z,16.70
2022-10-29T14:15:40.845Z,16.67
2022-10-29T14:18:26.795Z,16.74
2022-10-29T14:21:16.086Z,16.24
2022-10-29T14:24:01.650Z,15.64
2022-10-29T14:26:46.836Z,15.59
2022-10-29T14:29:30.671Z,15.89
2022-10-29T14:32:18.844Z,15.86
2022-10-29T14:35:04.076Z,15.90
2022-10-29T14:37:49.937Z,15.66
2022-10-29T14:40:33.815Z,15.49
2022-10-29T14:43:25.411Z,15.54
2022-10-29T14:46:19.989Z,15.77
2022-10-29T14:49:13.415Z,15.77
2022-10-29T14:52:01.040Z,15.55
2022-10-29T14:54:49.587Z,15.59
2022-10-29T14:57:36.589Z,15.46
2022-10-29T15:00:25.752Z,15.53
2022-10-29T15:03:16.888Z,15.48
2022-10-29T15:06:15.999Z,15.36
2022-10-29T15:09:03.934Z,15.28
2022-10-29T15:12:00.421Z,15.16
2022-10-29T15:14:48.566Z,15.05
2022-10-29T15:17:33.558Z,15.07
2022-10-29T15:20:22.343Z,15.09
2022-10-29T15:23:07.161Z,14.78
2022-10-29T15:25:58.618Z,14.95
2022-10-29T15:28:45.001Z,14.91
2022-10-29T15:31:34.479Z,14.91
2022-10-29T15:34:22.772Z,14.88
2022-10-29T15:37:23.885Z,14.82
2022-10-29T15:40:13.402Z,14.74
2022-10-29T15:43:29.169Z,14.69
2022-10-29T15:46:16.085Z,14.60
2022-10-29T15:48:59.962Z,14.55
2022-10-29T15:51:44.053Z,14.57
2022-10-29T15:54:28.902Z,14.46
2022-10-29T15:57:14.869Z,14.40
2022-10-29T16:00:05.319Z,14.40
2022-10-29T16:02:50.291Z,14.26
2022-10-29T16:05:34.178Z,14.11
2022-10-29T16:08:25.896Z,14.07
2022-10-29T16:11:14.174Z,13.87
2022-10-29T16:13:57.881Z,13.78
2022-10-29T16:16:43.065Z,13.27
2022-10-29T16:19:26.821Z,13.58
2022-10-29T16:22:15.788Z,13.51
2022-10-29T16:24:59.543Z,13.53
2022-10-29T16:27:44.339Z,13.54
2022-10-29T16:30:28.463Z,13.37
2022-10-29T16:33:13.852Z,13.31
2022-10-29T16:35:57.917Z,12.29
2022-10-29T16:38:41.828Z,13.11
2022-10-29T16:41:25.927Z,13.10
2022-10-29T16:44:09.656Z,12.90
2022-10-29T16:46:53.338Z,13.12
2022-10-29T16:49:38.516Z,13.14
2022-10-29T16:52:24.192Z,13.26
2022-10-29T16:55:10.552Z,13.08
2022-10-29T16:57:54.631Z,12.67
2022-10-29T17:00:38.751Z,12.97
2022-10-29T17:03:22.898Z,13.00
2022-10-29T17:06:09.690Z,13.02
2022-10-29T17:08:53.586Z,12.52
2022-10-29T17:11:37.392Z,12.62
2022-10-29T17:14:21.138Z,12.64
2022-10-29T17:17:06.847Z,12.44
2022-10-29T17:19:50.565Z,12.72
2022-10-29T17:22:35.796Z,12.62
2022-10-29T17:25:19.748Z,12.67
2022-10-29T17:28:04.027Z,12.50
2022-10-29T17:30:47.907Z,12.51
2022-10-29T17:33:31.930Z,12.68
2022-10-29T17:36:18.314Z,12.46
2022-10-29T17:39:04.014Z,12.38
2022-10-29T17:41:47.913Z,12.32
2022-10-29T17:44:34.152Z,12.46
2022-10-29T17:47:18.008Z,12.54
2022-10-29T17:50:02.019Z,12.47
2022-10-29T17:52:47.117Z,12.29
2022-10-29T17:55:32.273Z,12.46
2022-10-29T17:58:18.225Z,12.50
2022-10-29T18:01:06.991Z,12.33
2022-10-29T18:03:50.926Z,12.53
2022-10-29T18:06:34.617Z,12.52
2022-10-29T18:09:20.370Z,12.37
2022-10-29T18:12:06.872Z,12.29
2022-10-29T18:14:50.763Z,12.24
2022-10-29T18:17:34.618Z,12.18
2022-10-29T18:20:18.430Z,12.12
2022-10-29T18:23:02.769Z,12.03
2022-10-29T18:25:59.501Z,11.94
2022-10-29T18:28:44.755Z,12.14
2022-10-29T18:31:30.687Z,12.09
2022-10-29T18:34:17.116Z,12.16
2022-10-29T18:37:01.282Z,12.10
2022-10-29T18:39:45.044Z,12.12
2022-10-29T18:42:29.982Z,12.13
2022-10-29T18:45:15.353Z,12.19
2022-10-29T18:47:59.934Z,12.06
2022-10-29T18:50:44.405Z,11.98
2022-10-29T18:53:28.337Z,12.01
2022-10-29T18:56:14.485Z,12.00
2022-10-29T18:58:59.667Z,11.65
2022-10-29T19:01:44.985Z,11.81
2022-10-29T19:04:29.200Z,11.79
2022-10-29T19:07:13.094Z,11.84
2022-10-29T19:09:56.974Z,11.63
2022-10-29T19:12:40.803Z,11.79
2022-10-29T19:15:24.518Z,11.91
2022-10-29T19:18:09.735Z,11.60
2022-10-29T19:20:53.573Z,11.94
2022-10-29T19:23:37.624Z,11.91
2022-10-29T19:26:21.301Z,11.87
2022-10-29T19:29:07.860Z,11.90
2022-10-29T19:31:51.707Z,11.91
2022-10-29T19:37:25.738Z,11.71
2022-10-29T19:40:10.514Z,11.84
2022-10-29T19:42:54.311Z,11.83
2022-10-29T19:45:40.355Z,11.78
2022-10-29T19:48:24.555Z,11.63
2022-10-29T19:51:11.397Z,11.59
2022-10-29T19:53:58.082Z,11.55
2022-10-29T19:56:41.900Z,11.62
2022-10-29T19:59:25.713Z,11.57
2022-10-29T20:02:10.424Z,11.54
2022-10-29T20:04:54.277Z,11.54
2022-10-29T20:07:39.462Z,11.51
2022-10-29T20:10:23.618Z,11.51
2022-10-29T20:13:07.515Z,11.44
2022-10-29T20:15:51.555Z,11.43
2022-10-29T20:18:36.224Z,10.73
2022-10-29T20:21:20.192Z,11.55
2022-10-29T20:24:05.613Z,11.60
2022-10-29T20:26:49.473Z,11.55
2022-10-29T20:29:33.585Z,11.59
2022-10-29T20:32:17.258Z,11.55
2022-10-29T20:35:01.006Z,11.51
2022-10-29T20:37:44.828Z,11.61
2022-10-29T20:40:29.935Z,11.54
2022-10-29T20:43:13.768Z,11.54
2022-10-29T20:46:03.357Z,11.33
2022-10-29T20:48:47.204Z,11.19
2022-10-29T20:51:30.921Z,11.54
2022-10-29T20:54:14.650Z,11.55
2022-10-29T20:56:59.863Z,11.49
2022-10-29T20:59:43.577Z,11.47
2022-10-29T21:02:27.474Z,11.37
2022-10-29T21:05:11.381Z,11.37
2022-10-29T21:07:55.451Z,11.40
2022-10-29T21:10:39.416Z,11.33
2022-10-29T21:13:24.584Z,11.28
2022-10-29T21:16:10.153Z,11.22
2022-10-29T21:18:55.980Z,11.30
2022-10-29T21:21:40.210Z,11.31
2022-10-29T21:24:24.016Z,10.99
2022-10-29T21:27:09.977Z,10.99
2022-10-29T21:29:55.137Z,11.20
2022-10-29T21:32:38.868Z,11.17
2022-10-29T21:35:22.845Z,11.28
2022-10-29T21:38:06.540Z,11.19
2022-10-29T21:40:50.555Z,11.28
2022-10-29T21:43:34.497Z,11.14
2022-10-29T21:46:19.677Z,11.16
2022-10-29T21:49:03.707Z,11.28
2022-10-29T21:51:48.447Z,11.28
2022-10-29T21:54:32.374Z,10.97
2022-10-29T21:57:16.262Z,11.06
2022-10-29T22:00:00.221Z,11.11
2022-10-29T22:02:45.708Z,10.96
2022-10-29T22:05:29.687Z,11.15
2022-10-29T22:08:13.733Z,11.22
2022-10-29T22:10:58.718Z,10.98
2022-10-29T22:13:42.677Z,11.23
2022-10-29T22:16:26.660Z,11.23
2022-10-29T22:19:12.099Z,10.97
2022-10-29T22:21:56.973Z,11.19
2022-10-29T22:24:40.990Z,11.06
2022-10-29T22:27:24.982Z,10.88
2022-10-29T22:30:09.738Z,10.91
2022-10-29T22:32:53.610Z,11.21
2022-10-29T22:35:38.767Z,11.12
2022-10-29T22:38:22.481Z,11.19
2022-10-29T22:41:07.770Z,11.07
2022-10-29T22:43:51.422Z,11.09
2022-10-29T22:46:35.145Z,10.69
2022-10-29T22:49:18.902Z,11.06
2022-10-29T22:52:04.026Z,10.94
2022-10-29T22:54:47.684Z,10.91
2022-10-29T22:57:31.448Z,10.73
2022-10-29T23:00:15.957Z,10.87
2022-10-29T23:02:59.969Z,10.92
2022-10-29T23:05:43.970Z,10.85
2022-10-29T23:08:30.063Z,10.86
2022-10-29T23:11:19.525Z,10.94
2022-10-29T23:14:03.871Z,10.97
2022-10-29T23:16:47.626Z,11.07
2022-10-29T23:19:31.297Z,11.03
2022-10-29T23:25:05.177Z,10.92
2022-10-29T23:27:48.929Z,10.90
2022-10-29T23:30:32.669Z,11.01
2022-10-29T23:33:16.363Z,10.95
2022-10-29T23:36:03.297Z,10.87
2022-10-29T23:38:47.225Z,10.81
2022-10-29T23:41:32.837Z,10.59
2022-10-29T23:44:16.590Z,10.66
2022-10-29T23:47:00.519Z,10.59
2022-10-29T23:49:44.282Z,10.69
2022-10-29T23:52:28.032Z,10.79
2022-10-29T23:55:11.680Z,10.60
2022-10-29T23:57:57.270Z,10.77
